Terminal Aerodrome Forecast
Issued by NWS

Home | Current Version | Previous Version | Text Only | Print | Product List | Glossary On
Versions: 1 2 3 4 5 6 7 8 9 10 11 12 13 14 15 16 17 18 19 20
000
FTUS44 KLZK 080403 AAA
TAFHOT
TAF AMD
KHOT 080403Z 0804/0824 35010KT P6SM BKN015 OVC035
      TEMPO 0804/0808 -SN
     FM081000 34010G15KT P6SM SCT040 BKN250=

USA.gov is the U.S. government's official web portal to all federal, state and local government web resources and services.